createdAt,value
2022-08-18T00:01:18.971Z,99988.02
2022-08-18T00:03:56.295Z,99990.30
2022-08-18T00:06:31.177Z,99988.00
2022-08-18T00:09:03.413Z,99988.35
2022-08-18T00:11:41.123Z,99981.66
2022-08-18T00:14:22.578Z,99987.11
2022-08-18T00:16:55.386Z,99986.44
2022-08-18T00:19:45.561Z,99992.33
2022-08-18T00:22:20.104Z,99999.61
2022-08-18T00:24:52.363Z,100001.03
2022-08-18T00:27:28.070Z,100011.48
2022-08-18T00:30:01.271Z,100016.47
2022-08-18T00:32:34.122Z,100020.32
2022-08-18T00:35:08.973Z,100025.48
2022-08-18T00:37:40.091Z,100029.98
2022-08-18T00:40:13.542Z,100031.22
2022-08-18T00:42:45.908Z,100037.75
2022-08-18T00:45:19.555Z,100035.40
2022-08-18T00:47:50.902Z,100048.18
2022-08-18T00:50:23.695Z,100041.45
2022-08-18T00:52:58.083Z,100048.88
2022-08-18T00:55:31.140Z,100046.41
2022-08-18T00:58:05.267Z,100046.63
2022-08-18T01:00:38.202Z,100046.95
2022-08-18T01:03:14.415Z,100047.96
2022-08-18T01:05:47.711Z,100039.21
2022-08-18T01:08:29.201Z,100048.34
2022-08-18T01:11:03.021Z,100053.09
2022-08-18T01:13:34.596Z,100047.74
2022-08-18T01:16:26.478Z,100051.36
2022-08-18T01:19:14.747Z,100064.20
2022-08-18T01:21:54.015Z,100067.88
2022-08-18T01:24:47.167Z,100066.20
2022-08-18T01:27:19.358Z,100065.59
2022-08-18T01:29:51.286Z,100063.24
2022-08-18T01:32:23.766Z,100061.23
2022-08-18T01:34:55.307Z,100064.71
2022-08-18T01:37:26.633Z,100070.11
2022-08-18T01:41:24.886Z,100067.19
2022-08-18T01:42:48.989Z,100066.19
2022-08-18T01:45:21.706Z,100073.34
2022-08-18T01:47:52.866Z,100074.23
2022-08-18T01:50:24.126Z,100077.15
2022-08-18T01:52:55.541Z,100072.44
2022-08-18T01:55:28.757Z,100076.91
2022-08-18T01:58:01.856Z,100078.79
2022-08-18T02:00:33.351Z,100075.79
2022-08-18T02:03:08.754Z,100069.36
2022-08-18T02:05:41.308Z,100070.39
2022-08-18T02:08:15.753Z,100070.73
2022-08-18T02:10:47.117Z,100063.16
2022-08-18T02:13:18.633Z,100063.44
2022-08-18T02:15:49.816Z,100062.06
2022-08-18T02:18:41.524Z,100072.56
2022-08-18T02:21:14.325Z,100073.67
2022-08-18T02:23:53.967Z,100078.69
2022-08-18T02:26:25.541Z,100070.45
2022-08-18T02:28:57.079Z,100073.95
2022-08-18T02:31:28.422Z,100075.86
2022-08-18T02:33:59.835Z,100073.98
2022-08-18T02:36:30.990Z,100075.45
2022-08-18T02:39:02.156Z,100069.55
2022-08-18T02:41:33.448Z,100069.40
2022-08-18T02:44:05.250Z,100071.03
2022-08-18T02:46:36.725Z,100075.19
2022-08-18T02:49:08.405Z,100075.48
2022-08-18T02:51:39.750Z,100072.73
2022-08-18T02:54:11.881Z,100074.73
2022-08-18T02:56:45.945Z,100068.80
2022-08-18T02:59:18.393Z,100069.67
2022-08-18T03:01:50.550Z,100076.52
2022-08-18T03:04:28.681Z,100074.83
2022-08-18T03:07:01.956Z,100072.98
2022-08-18T03:09:34.732Z,100072.48
2022-08-18T03:12:07.802Z,100075.30
2022-08-18T03:14:40.301Z,100074.77
2022-08-18T03:17:11.843Z,100070.94
2022-08-18T03:19:46.768Z,100067.45
2022-08-18T03:22:28.737Z,100068.64
2022-08-18T03:25:02.261Z,100066.86
2022-08-18T03:27:33.755Z,100076.38
2022-08-18T03:30:05.850Z,100077.84
2022-08-18T03:32:45.616Z,100078.20
2022-08-18T03:35:17.592Z,100078.19
2022-08-18T03:37:48.781Z,100080.39
2022-08-18T03:40:20.183Z,100082.45
2022-08-18T03:42:51.524Z,100087.55
2022-08-18T03:45:23.569Z,100090.27
2022-08-18T03:47:54.826Z,100090.02
2022-08-18T03:50:26.662Z,100088.65
2022-08-18T03:52:59.800Z,100084.89
2022-08-18T03:55:31.055Z,100093.09
2022-08-18T03:58:03.745Z,100087.18
2022-08-18T04:00:35.024Z,100088.45
2022-08-18T04:03:06.354Z,100086.96
2022-08-18T04:05:40.594Z,100089.73
2022-08-18T04:08:13.702Z,100089.70
2022-08-18T04:10:47.155Z,100088.59
2022-08-18T04:13:18.485Z,100082.98
2022-08-18T04:15:49.723Z,100079.41
2022-08-18T04:18:20.896Z,100081.13
2022-08-18T04:20:59.861Z,100082.84
2022-08-18T04:23:31.864Z,100089.36
2022-08-18T04:26:19.131Z,100088.30
2022-08-18T04:28:50.555Z,100086.92
2022-08-18T04:31:24.726Z,100083.25
2022-08-18T04:33:57.237Z,100080.34
2022-08-18T04:36:28.822Z,100080.02
2022-08-18T04:39:00.305Z,100086.15
2022-08-18T04:41:31.596Z,100090.96
2022-08-18T04:44:03.870Z,100094.27
2022-08-18T04:46:36.894Z,100106.80
2022-08-18T04:49:09.562Z,100101.79
2022-08-18T04:52:36.966Z,100099.23
2022-08-18T04:54:38.486Z,100107.88
2022-08-18T04:57:10.814Z,100102.30
2022-08-18T04:59:46.021Z,100106.08
2022-08-18T05:02:18.835Z,100104.42
2022-08-18T05:04:50.254Z,100103.29
2022-08-18T05:07:23.051Z,100099.28
2022-08-18T05:09:55.419Z,100101.67
2022-08-18T05:12:27.117Z,100101.10
2022-08-18T05:14:58.369Z,100101.98
2022-08-18T05:17:31.082Z,100099.77
2022-08-18T05:20:04.119Z,100101.73
2022-08-18T05:22:41.055Z,100103.91
2022-08-18T05:25:13.855Z,100110.81
2022-08-18T05:27:45.522Z,100104.22
2022-08-18T05:30:17.087Z,100101.35
2022-08-18T05:32:50.508Z,100105.70
2022-08-18T05:35:24.820Z,100103.10
2022-08-18T05:38:09.381Z,100104.61
2022-08-18T05:40:40.428Z,100114.71
2022-08-18T05:43:12.960Z,100112.65
2022-08-18T05:45:44.733Z,100109.86
2022-08-18T05:48:17.414Z,100111.43
2022-08-18T05:50:49.061Z,100114.09
2022-08-18T05:53:40.560Z,100120.01
2022-08-18T05:56:30.640Z,100126.46
2022-08-18T05:59:02.533Z,100123.30
2022-08-18T06:01:38.599Z,100124.42
2022-08-18T06:04:13.665Z,100122.29
2022-08-18T06:06:47.917Z,100118.23
2022-08-18T06:09:23.314Z,100120.15
2022-08-18T06:11:55.858Z,100115.88
2022-08-18T06:14:27.381Z,100114.95
2022-08-18T06:17:02.743Z,100114.31
2022-08-18T06:19:41.762Z,100122.41
2022-08-18T06:22:19.288Z,100121.70
2022-08-18T06:24:53.069Z,100127.23
2022-08-18T06:27:31.467Z,100124.95
2022-08-18T06:30:09.126Z,100125.49
2022-08-18T06:32:53.300Z,100118.77
2022-08-18T06:35:30.706Z,100115.38
2022-08-18T06:38:24.189Z,100113.76
2022-08-18T06:41:02.353Z,100122.30
2022-08-18T06:43:35.623Z,100130.23
2022-08-18T06:46:10.533Z,100129.41
2022-08-18T06:48:46.127Z,100130.75
2022-08-18T06:51:20.134Z,100138.19
2022-08-18T06:53:56.418Z,100142.61
2022-08-18T06:56:30.026Z,100137.52
2022-08-18T06:59:14.994Z,100148.17
2022-08-18T07:01:47.937Z,100146.38
2022-08-18T07:04:38.435Z,100151.42
2022-08-18T07:07:20.831Z,100153.95
2022-08-18T07:09:52.099Z,100154.91
2022-08-18T07:12:30.483Z,100147.35
2022-08-18T07:15:06.114Z,100154.92
2022-08-18T07:17:52.870Z,100149.48
2022-08-18T07:20:25.671Z,100153.80
2022-08-18T07:23:00.017Z,100155.41
2022-08-18T07:25:33.586Z,100158.27
2022-08-18T07:28:04.739Z,100157.48
2022-08-18T07:30:37.584Z,100159.39
2022-08-18T07:33:12.953Z,100157.16
2022-08-18T07:35:46.961Z,100158.69
2022-08-18T07:41:16.226Z,100144.55
2022-08-18T07:43:54.398Z,100140.17
2022-08-18T07:46:33.483Z,100137.02
2022-08-18T07:49:06.757Z,100139.08
2022-08-18T07:51:45.664Z,100142.55
2022-08-18T07:54:47.603Z,100144.12
2022-08-18T07:57:20.081Z,100138.67
2022-08-18T07:59:55.619Z,100134.34
2022-08-18T08:02:34.316Z,100141.98
2022-08-18T08:05:11.596Z,100134.27
2022-08-18T08:07:47.605Z,100135.02
2022-08-18T08:10:28.978Z,100135.26
2022-08-18T08:13:09.846Z,100139.60
2022-08-18T08:15:49.145Z,100151.04
2022-08-18T08:18:26.424Z,100145.85
2022-08-18T08:20:58.962Z,100140.32
2022-08-18T08:23:32.327Z,100141.40
2022-08-18T08:26:13.769Z,100144.36
2022-08-18T08:28:55.238Z,100142.86
2022-08-18T08:31:37.240Z,100142.36
2022-08-18T08:34:12.646Z,100147.92
2022-08-18T08:36:46.326Z,100149.30
2022-08-18T08:39:20.248Z,100146.36
2022-08-18T08:41:57.590Z,100155.47
2022-08-18T08:44:59.105Z,100147.09
2022-08-18T08:47:34.207Z,100152.20
2022-08-18T08:50:08.370Z,100149.13
2022-08-18T08:52:42.121Z,100149.02
2022-08-18T08:55:17.775Z,100147.33
2022-08-18T08:57:51.653Z,100148.89
2022-08-18T09:00:23.288Z,100141.29
2022-08-18T09:03:02.647Z,100140.02
2022-08-18T09:05:37.652Z,100138.61
2022-08-18T09:08:15.984Z,100130.17
2022-08-18T09:11:09.434Z,100124.48
2022-08-18T09:13:53.841Z,100124.64
2022-08-18T09:16:35.758Z,100122.24
2022-08-18T09:19:19.134Z,100124.84
2022-08-18T09:21:54.127Z,100117.30
2022-08-18T09:24:27.554Z,100111.22
2022-08-18T09:27:14.032Z,100108.80
2022-08-18T09:29:52.881Z,100110.90
2022-08-18T09:32:40.530Z,100116.52
2022-08-18T09:35:26.612Z,100112.44
2022-08-18T09:38:20.577Z,100108.65
2022-08-18T09:41:10.693Z,100106.94
2022-08-18T09:43:56.222Z,100105.80
2022-08-18T09:46:40.882Z,100103.15
2022-08-18T09:49:28.363Z,100105.55
2022-08-18T09:52:02.358Z,100102.95
2022-08-18T09:54:35.177Z,100104.89
2022-08-18T09:57:20.810Z,100100.63
2022-08-18T09:59:57.098Z,100106.73
2022-08-18T10:02:48.588Z,100104.61
2022-08-18T10:05:29.751Z,100100.60
2022-08-18T10:08:15.007Z,100101.73
2022-08-18T10:11:01.202Z,100099.62
2022-08-18T10:17:13.104Z,100101.19
2022-08-18T10:19:43.382Z,100098.84
2022-08-18T10:22:36.141Z,100099.06
2022-08-18T10:25:22.190Z,100101.79
2022-08-18T10:27:56.943Z,100108.73
2022-08-18T10:30:56.883Z,100107.40
2022-08-18T10:33:45.500Z,100102.26
2022-08-18T10:36:34.097Z,100104.70
2022-08-18T10:39:08.028Z,100109.27
2022-08-18T10:44:33.000Z,100120.88
2022-08-18T10:47:12.018Z,100110.21
2022-08-18T10:49:49.523Z,100110.44
2022-08-18T10:52:35.286Z,100116.29
2022-08-18T10:55:24.736Z,100120.33
2022-08-18T10:58:24.017Z,100124.66
2022-08-18T11:01:07.800Z,100124.52
2022-08-18T11:04:13.850Z,100132.74
2022-08-18T11:06:49.298Z,100120.98
2022-08-18T11:09:27.397Z,100123.68
2022-08-18T11:12:01.713Z,100113.86
2022-08-18T11:14:52.840Z,100109.27
2022-08-18T11:17:31.826Z,100116.76
2022-08-18T11:20:04.318Z,100109.88
2022-08-18T11:22:36.477Z,100108.89
2022-08-18T11:25:22.578Z,100109.75
2022-08-18T11:27:53.899Z,100100.83
2022-08-18T11:30:30.715Z,100098.11
2022-08-18T11:33:03.568Z,100090.45
2022-08-18T11:35:36.828Z,100084.70
2022-08-18T11:38:21.096Z,100080.73
2022-08-18T11:41:13.036Z,100077.50
2022-08-18T11:46:41.101Z,100079.59
2022-08-18T11:49:24.118Z,100081.93
2022-08-18T11:52:29.489Z,100068.29
2022-08-18T11:55:14.555Z,100067.20
2022-08-18T11:57:58.835Z,100067.73
2022-08-18T12:00:42.589Z,100064.70
2022-08-18T12:03:21.203Z,100060.20
2022-08-18T12:05:56.351Z,100050.77
2022-08-18T12:08:56.139Z,100055.63
2022-08-18T12:11:27.069Z,100060.44
2022-08-18T12:14:30.322Z,100060.61
2022-08-18T12:16:55.156Z,100050.65
2022-08-18T12:19:28.564Z,100048.33
2022-08-18T12:22:01.970Z,100039.27
2022-08-18T12:24:39.231Z,100043.75
2022-08-18T12:27:20.713Z,100046.86
2022-08-18T12:29:53.843Z,100047.02
2022-08-18T12:32:56.145Z,100051.86
2022-08-18T12:35:21.694Z,100055.86
2022-08-18T12:37:59.727Z,100044.42
2022-08-18T12:40:34.760Z,100051.27
2022-08-18T12:43:06.052Z,100045.05
2022-08-18T12:45:38.196Z,100041.14
2022-08-18T12:48:10.871Z,100036.22
2022-08-18T12:53:38.065Z,100028.81
2022-08-18T12:56:26.547Z,100026.02
2022-08-18T12:58:59.738Z,100030.58
2022-08-18T13:01:31.032Z,100030.79
2022-08-18T13:04:11.088Z,100025.70
2022-08-18T13:06:59.303Z,100031.45
2022-08-18T13:09:34.185Z,100033.80
2022-08-18T13:12:16.149Z,100028.06
2022-08-18T13:14:48.220Z,100028.56
2022-08-18T13:17:30.075Z,100026.17
2022-08-18T13:20:08.713Z,100016.28
2022-08-18T13:22:41.291Z,100013.77
2022-08-18T13:25:33.202Z,100019.11
2022-08-18T13:28:05.959Z,100014.48
2022-08-18T13:30:37.321Z,100005.16
2022-08-18T13:33:35.158Z,100000.01
2022-08-18T13:36:01.432Z,100004.19
2022-08-18T13:38:33.060Z,100003.38
2022-08-18T13:41:08.702Z,100002.00
2022-08-18T13:43:47.880Z,100003.02
2022-08-18T13:46:30.112Z,100006.26
2022-08-18T13:49:03.294Z,100000.08
2022-08-18T13:51:34.728Z,99992.99
2022-08-18T13:54:27.005Z,99992.12
2022-08-18T13:56:58.074Z,99984.48
2022-08-18T13:59:31.947Z,99991.20
2022-08-18T14:02:03.831Z,99991.83
2022-08-18T14:04:36.556Z,99989.28
2022-08-18T14:07:11.722Z,99990.16
2022-08-18T14:09:43.717Z,99990.00
2022-08-18T14:12:22.394Z,99988.07
2022-08-18T14:14:55.016Z,99983.88
2022-08-18T14:17:27.014Z,99980.87
2022-08-18T14:20:27.231Z,99977.14
2022-08-18T14:23:21.635Z,99977.51
2022-08-18T14:26:25.162Z,99982.32
2022-08-18T14:28:58.121Z,99987.92
2022-08-18T14:31:29.241Z,99987.86
2022-08-18T14:34:05.284Z,99989.48
2022-08-18T14:36:36.328Z,99982.80
2022-08-18T14:39:08.466Z,99986.21
2022-08-18T14:41:54.688Z,99983.34
2022-08-18T14:44:32.261Z,99983.65
2022-08-18T14:47:03.632Z,99981.40
2022-08-18T14:49:36.474Z,99984.43
2022-08-18T14:52:19.093Z,99983.30
2022-08-18T14:54:51.090Z,99979.14
2022-08-18T14:57:22.467Z,99983.47
2022-08-18T14:59:57.228Z,99991.00
2022-08-18T15:02:28.681Z,99991.57
2022-08-18T15:04:59.905Z,99991.40
2022-08-18T15:07:32.904Z,100000.17
2022-08-18T15:10:14.795Z,100009.00
2022-08-18T15:12:49.074Z,100006.02
2022-08-18T15:15:22.472Z,100000.76
2022-08-18T15:17:54.850Z,100012.59
2022-08-18T15:20:29.593Z,100013.67
2022-08-18T15:23:24.913Z,100017.52
2022-08-18T15:26:00.002Z,100010.27
2022-08-18T15:28:31.203Z,100007.23
2022-08-18T15:31:17.808Z,100000.99
2022-08-18T15:33:50.217Z,99994.34
2022-08-18T15:36:29.149Z,99986.98
2022-08-18T15:39:00.939Z,99982.24
2022-08-18T15:41:34.747Z,99982.24
2022-08-18T15:44:07.873Z,99987.16
2022-08-18T15:46:39.920Z,99983.34
2022-08-18T15:49:14.874Z,99982.42
2022-08-18T15:51:46.743Z,99976.33
2022-08-18T15:54:17.863Z,99974.05
2022-08-18T15:56:57.824Z,99972.83
2022-08-18T15:59:34.359Z,99969.03
2022-08-18T16:02:17.989Z,99964.83
2022-08-18T16:04:50.641Z,99954.90
2022-08-18T16:07:25.086Z,99951.39
2022-08-18T16:10:04.249Z,99948.02
2022-08-18T16:12:35.345Z,99944.38
2022-08-18T16:15:07.922Z,99949.67
2022-08-18T16:17:39.241Z,99954.36
2022-08-18T16:20:11.254Z,99950.58
2022-08-18T16:22:42.739Z,99952.89
2022-08-18T16:25:13.752Z,99953.23
2022-08-18T16:27:45.223Z,99955.21
2022-08-18T16:30:19.633Z,99958.31
2022-08-18T16:32:50.986Z,99962.70
2022-08-18T16:35:22.679Z,99965.80
2022-08-18T16:37:53.867Z,99971.88
2022-08-18T16:40:28.035Z,99976.80
2022-08-18T16:43:00.354Z,99974.84
2022-08-18T16:45:33.817Z,99983.45
2022-08-18T16:48:08.417Z,99976.98
2022-08-18T16:50:42.672Z,99977.59
2022-08-18T16:53:13.678Z,99986.27
2022-08-18T16:55:45.352Z,99990.82
2022-08-18T16:58:33.840Z,99986.70
2022-08-18T17:01:22.110Z,99989.82
2022-08-18T17:04:13.600Z,99989.59
2022-08-18T17:06:52.138Z,99987.89
2022-08-18T17:09:24.067Z,99985.52
2022-08-18T17:11:55.427Z,99985.05
2022-08-18T17:14:28.030Z,99989.98
2022-08-18T17:17:00.536Z,99988.45
2022-08-18T17:19:33.914Z,99990.93
2022-08-18T17:22:06.423Z,99988.46
2022-08-18T17:24:38.026Z,99986.60
2022-08-18T17:27:26.400Z,99980.78
2022-08-18T17:30:03.702Z,99984.46
2022-08-18T17:35:16.233Z,99977.52
2022-08-18T17:37:52.525Z,99975.95
2022-08-18T17:40:28.655Z,99980.15
2022-08-18T17:43:00.668Z,99977.83
2022-08-18T17:45:36.321Z,99983.80
2022-08-18T17:48:12.082Z,99981.48
2022-08-18T17:51:02.927Z,99980.66
2022-08-18T17:53:36.511Z,99994.02
2022-08-18T17:56:09.281Z,99986.73
2022-08-18T17:58:42.467Z,99989.09
2022-08-18T18:01:14.013Z,99997.73
2022-08-18T18:03:45.973Z,99987.10
2022-08-18T18:06:20.117Z,99982.88
2022-08-18T18:08:57.417Z,99988.75
2022-08-18T18:11:31.403Z,99979.99
2022-08-18T18:14:24.485Z,99970.14
2022-08-18T18:17:03.524Z,99966.96
2022-08-18T18:19:35.285Z,99976.39
2022-08-18T18:22:08.625Z,99968.67
2022-08-18T18:24:40.702Z,99970.73
2022-08-18T18:27:26.881Z,99980.54
2022-08-18T18:29:59.658Z,99973.17
2022-08-18T18:32:33.239Z,99973.02
2022-08-18T18:35:09.910Z,99973.86
2022-08-18T18:37:47.085Z,99966.83
2022-08-18T18:40:23.595Z,99963.89
2022-08-18T18:42:55.283Z,99964.67
2022-08-18T18:45:28.891Z,99958.40
2022-08-18T18:48:07.206Z,99960.95
2022-08-18T18:50:52.867Z,99964.94
2022-08-18T18:53:31.639Z,99967.70
2022-08-18T18:56:12.569Z,99967.29
2022-08-18T18:58:49.018Z,99965.48
2022-08-18T19:01:26.278Z,99968.27
2022-08-18T19:04:00.593Z,99973.81
2022-08-18T19:06:32.952Z,99983.83
2022-08-18T19:09:08.775Z,99997.70
2022-08-18T19:11:44.153Z,99997.30
2022-08-18T19:14:18.682Z,100000.73
2022-08-18T19:16:52.936Z,100007.44
2022-08-18T19:19:37.350Z,100006.42
2022-08-18T19:22:15.955Z,100020.27
2022-08-18T19:24:54.624Z,100022.99
2022-08-18T19:27:30.511Z,100027.05
2022-08-18T19:30:06.132Z,100036.98
2022-08-18T19:32:39.708Z,100042.99
2022-08-18T19:35:13.911Z,100041.95
2022-08-18T19:38:05.271Z,100045.59
2022-08-18T19:40:40.494Z,100043.78
2022-08-18T19:43:15.964Z,100049.86
2022-08-18T19:45:51.325Z,100042.83
2022-08-18T19:48:27.833Z,100037.86
2022-08-18T19:51:05.312Z,100038.44
2022-08-18T19:53:52.823Z,100042.94
2022-08-18T19:56:34.229Z,100036.67
2022-08-18T19:59:19.471Z,100030.56
2022-08-18T20:02:11.666Z,100030.58
2022-08-18T20:04:52.517Z,100029.45
2022-08-18T20:07:46.843Z,100021.83
2022-08-18T20:10:27.884Z,100023.07
2022-08-18T20:13:10.328Z,100019.46
2022-08-18T20:15:59.060Z,100020.81
2022-08-18T20:18:35.828Z,100024.86
2022-08-18T20:21:36.854Z,100024.86
2022-08-18T20:24:34.678Z,100031.09
2022-08-18T20:27:34.165Z,100024.77
2022-08-18T20:30:20.331Z,100023.79
2022-08-18T20:33:05.793Z,100033.52
2022-08-18T20:35:41.215Z,100035.27
2022-08-18T20:38:22.667Z,100034.36
2022-08-18T20:40:55.570Z,100033.89
2022-08-18T20:43:28.280Z,100030.00
2022-08-18T20:46:07.060Z,100027.08
2022-08-18T20:48:44.177Z,100023.78
2022-08-18T20:51:16.827Z,100021.92
2022-08-18T20:53:59.450Z,100015.86
2022-08-18T20:56:43.273Z,100015.10
2022-08-18T20:59:18.785Z,100017.61
2022-08-18T21:01:56.770Z,100014.58
2022-08-18T21:04:42.473Z,100006.09
2022-08-18T21:07:19.576Z,100002.80
2022-08-18T21:10:12.282Z,100007.20
2022-08-18T21:12:52.113Z,100009.46
2022-08-18T21:15:25.440Z,100006.48
2022-08-18T21:18:01.001Z,100006.48
2022-08-18T21:20:32.651Z,100012.44
2022-08-18T21:23:05.357Z,100004.95
2022-08-18T21:25:36.454Z,100005.02
2022-08-18T21:28:08.126Z,99998.50
2022-08-18T21:30:39.955Z,99990.50
2022-08-18T21:33:23.005Z,99982.54
2022-08-18T21:35:54.295Z,99973.36
2022-08-18T21:38:28.162Z,99967.02
2022-08-18T21:41:00.541Z,99969.04
2022-08-18T21:43:49.278Z,99957.30
2022-08-18T21:46:28.029Z,99949.33
2022-08-18T21:49:00.660Z,99950.52
2022-08-18T21:51:33.275Z,99959.10
2022-08-18T21:54:04.251Z,99964.09
2022-08-18T21:56:36.424Z,99968.52
2022-08-18T21:59:10.939Z,99975.75
2022-08-18T22:01:49.640Z,99983.21
2022-08-18T22:04:27.735Z,99977.65
2022-08-18T22:07:00.670Z,99972.00
2022-08-18T22:09:50.163Z,99971.92
2022-08-18T22:12:42.238Z,99967.57
2022-08-18T22:15:14.716Z,99966.35
2022-08-18T22:17:59.552Z,99963.61
2022-08-18T22:20:38.619Z,99960.46
2022-08-18T22:23:36.241Z,99957.77
2022-08-18T22:26:13.951Z,99955.73
2022-08-18T22:28:49.834Z,99952.59
2022-08-18T22:31:22.144Z,99950.52
2022-08-18T22:33:53.997Z,99952.74
2022-08-18T22:36:27.848Z,99950.06
2022-08-18T22:38:58.976Z,99948.20
2022-08-18T22:41:30.125Z,99946.91
2022-08-18T22:44:02.628Z,99948.16
2022-08-18T22:46:34.162Z,99942.50
2022-08-18T22:49:05.349Z,99941.92
2022-08-18T22:51:37.560Z,99939.23
2022-08-18T22:54:11.322Z,99940.07
2022-08-18T22:56:56.383Z,99940.61
2022-08-18T22:59:29.300Z,99942.37
2022-08-18T23:02:03.587Z,99946.14
2022-08-18T23:04:34.876Z,99948.64
2022-08-18T23:07:06.231Z,99945.55
2022-08-18T23:09:37.639Z,99957.41
2022-08-18T23:12:10.841Z,99948.95
2022-08-18T23:14:46.376Z,99959.95
2022-08-18T23:17:17.598Z,99961.63
2022-08-18T23:19:48.652Z,99964.80
2022-08-18T23:22:23.377Z,99962.92
2022-08-18T23:24:54.658Z,99974.35
2022-08-18T23:27:25.805Z,99970.59
2022-08-18T23:29:57.093Z,99970.29
2022-08-18T23:32:30.233Z,99976.02
2022-08-18T23:35:03.379Z,99973.55
2022-08-18T23:37:34.630Z,99981.81
2022-08-18T23:40:06.619Z,99977.33
2022-08-18T23:42:37.846Z,99977.55
2022-08-18T23:45:10.179Z,99980.66
2022-08-18T23:47:41.712Z,99977.80
2022-08-18T23:50:13.427Z,99972.38
2022-08-18T23:52:44.599Z,99976.55
2022-08-18T23:55:18.800Z,99968.51
2022-08-18T23:57:49.839Z,99967.23
